• Join FlightAware (Why Join?)
  • Login
  • US Flag GB Flag 
04:59 EDT


 

Airport Tracker/Info


-or-


 

Live Flight TrackerFlight Track Log ✈ EJA929 ✈ 13-Apr-2013 ✈ KVNY - KSAF

Flight Track Log - Related Links

Times and Time Zones

All times are in EDT time to prevent confusion due to time zone crossing. See the EJA929 flight status page for this flight to view local times or setup timezone preferences in your user account.

Time Position Orientation Groundspeed Altitude Reporting Facility
EDT Latitude Longitude Course Direction KTS MPH feet Rate Location/Type
20:34 34.1833 -118.4833 92° East 182 209 1,600  Level Southern California TRACON
20:36 34.1800 -118.3786 92° East 255 293 9,100 3,480 Climbing Los Angeles Center
20:37 34.2433 -118.4086 339° North 245 282 12,700 3,360 Climbing Los Angeles Center
20:38 34.3203 -118.4397 342° North 282 325 16,100 2,340 Climbing Los Angeles Center
20:39 34.4039 -118.4278 North 329 379 17,600 1,320 Climbing Los Angeles Center
20:40 34.4786 -118.3119 52° Northeast 367 422 18,900 660 Climbing Los Angeles Center
20:41 34.5478 -118.2011 53° Northeast 409 471 19,000  Climbing Los Angeles Center
20:42 34.6139 -118.0947 53° Northeast 436 502 19,000  Level Los Angeles Center
20:43 34.6461 -117.9431 75° East 476 548 19,000 660 Level Los Angeles Center
20:44 34.6650 -117.7583 83° East 465 535 20,400 1,380 Climbing Los Angeles Center
20:45 34.6800 -117.6097 83° East 453 521 21,900 1,380 Climbing Los Angeles Center
20:46 34.6950 -117.4611 83° East 449 517 23,300 1,200 Climbing Los Angeles Center
20:47 34.7108 -117.3097 83° East 457 526 24,400 1,140 Climbing Los Angeles Center
20:48 34.7269 -117.1525 83° East 469 540 25,700 1,260 Climbing Los Angeles Center
20:49 34.7467 -116.9597 83° East 483 556 27,100 1,260 Climbing Los Angeles Center
20:50 34.7636 -116.7931 83° East 497 572 28,400 1,140 Climbing Los Angeles Center
20:51 34.7772 -116.6581 83° East 504 580 29,500 1,260 Climbing Los Angeles Center
20:52 34.7953 -116.4497 84° East 515 593 31,000 1,260 Climbing Los Angeles Center
20:53 34.7947 -116.2692 90° East 531 611 32,200 1,260 Climbing Los Angeles Center
20:55 34.7914 -116.0889 91° East 535 616 33,700 1,560 Climbing Los Angeles Center
20:56 34.7911 -115.9089 90° East 534 615 35,500 1,860 Climbing Los Angeles Center
20:57 34.7875 -115.6942 91° East 532 612 37,600 1,800 Climbing Los Angeles Center
20:58 34.7853 -115.5247 91° East 526 605 39,300 1,440 Climbing Los Angeles Center
20:59 34.7825 -115.3517 91° East 517 595 40,600 780 Climbing Los Angeles Center
21:00 34.7792 -115.1783 91° East 515 593 41,000 180 Climbing Los Angeles Center
21:01 34.7758 -114.9611 91° East 533 613 41,000  Level Los Angeles Center
21:02 34.7714 -114.7775 92° East 543 625 41,000  Level Los Angeles Center
21:03 34.7675 -114.5942 91° East 544 626 41,000  Level Los Angeles Center
21:04 34.7639 -114.4131 91° East 538 619 41,000  Level Los Angeles Center
21:05 34.7597 -114.2278 92° East 545 627 41,000 300 Level Los Angeles Center
21:06 34.7539 -114.0442 92° East 546 628 41,800 840 Climbing Los Angeles Center
21:07 34.7494 -113.8300 91° East 539 620 43,000 720 Climbing Los Angeles Center
21:08 34.7461 -113.7217 92° East 538 619 43,000  Level Albuquerque Center
21:09 34.7422 -113.5347 91° East 540 621 43,000  Level Albuquerque Center
21:10 34.7678 -113.3200 82° East 550 633 43,000  Level Albuquerque Center
21:11 34.7925 -113.1375 81° East 552 635 43,000  Level Albuquerque Center
21:12 34.8172 -112.9550 81° East 553 636 43,000  Level Albuquerque Center
21:13 34.8414 -112.7742 81° East 551 634 43,000  Level Albuquerque Center
21:14 34.8653 -112.5917 81° East 552 635 43,000  Level Albuquerque Center
21:15 34.8889 -112.4108 81° East 549 632 43,000  Level Albuquerque Center
21:16 34.9147 -112.2053 81° East 527 606 43,000  Level Albuquerque Center
21:17 34.9358 -112.0353 81° East 517 595 43,000  Level Albuquerque Center
21:18 34.9578 -111.8619 81° East 520 598 43,000  Level Albuquerque Center
21:19 34.9775 -111.7039 81° East 520 598 43,000  Level Albuquerque Center
21:20 35.0028 -111.4933 82° East 521 600 43,000  Level Albuquerque Center
21:21 35.0247 -111.3175 81° East 523 602 43,000  Level Albuquerque Center
21:22 35.0461 -111.1397 82° East 527 606 43,000  Level Albuquerque Center
21:23 35.0672 -110.9489 82° East 530 610 43,000  Level Albuquerque Center
21:24 35.0886 -110.7806 81° East 527 606 43,000  Level Albuquerque Center
21:25 35.1089 -110.6108 82° East 527 606 43,000  Level Albuquerque Center
21:26 35.1303 -110.4136 82° East 526 605 43,000  Level Albuquerque Center
21:27 35.1503 -110.2450 82° East 525 604 43,000  Level Albuquerque Center
21:28 35.1725 -110.0500 82° East 522 601 43,000  Level Albuquerque Center
21:29 35.1914 -109.8803 82° East 524 603 43,000  Level Albuquerque Center
21:30 35.2086 -109.7081 83° East 530 610 43,000  Level Albuquerque Center
21:31 35.2289 -109.5075 83° East 533 613 43,000  Level Albuquerque Center
21:32 35.2475 -109.3361 82° East 534 615 43,000  Level Albuquerque Center
21:33 35.2675 -109.1375 83° East 530 610 43,000  Level Albuquerque Center
21:34 35.2856 -108.9700 82° East 525 604 43,000  Level Albuquerque Center
21:35 35.3047 -108.7753 83° East 520 598 43,000  Level Albuquerque Center
21:36 35.3217 -108.6064 83° East 523 602 43,000  Level Albuquerque Center
21:37 35.3381 -108.4378 83° East 524 603 43,000  Level Albuquerque Center
21:38 35.3572 -108.2397 83° East 526 605 43,000 -180 Level Albuquerque Center
21:39 35.3736 -108.0661 83° East 532 612 42,700 -1,320 Descending Albuquerque Center
21:40 35.3917 -107.8736 83° East 518 596 40,400 -1,860 Descending Albuquerque Center
21:41 35.4050 -107.7200 84° East 490 564 38,900 -2,040 Descending Albuquerque Center
21:42 35.4169 -107.5756 84° East 458 527 36,300 -3,120 Descending Albuquerque Center
21:44 35.4547 -107.3982 75° East  Level FlightAware Approximate
21:44 35.4447 -107.2597 75° East 450 518 29,400  Level Albuquerque Center
21:45 35.4567 -107.1122 84° East 426 490 25,800 -3,480 Descending Albuquerque Center
21:46 35.4686 -106.9656 84° East 427 491 22,300 -3,420 Descending Albuquerque Center
21:47 35.4814 -106.8214 84° East 421 484 18,900 -3,480 Descending Albuquerque Center
21:49 35.4931 -106.6886 84° East 396 456 15,300 -3,360 Descending Albuquerque Center
21:50 35.5042 -106.5550 84° East 392 451 12,100 -1,620 Descending Albuquerque Center
21:51 35.5442 -106.4519 64° Northeast 335 386 12,000 -60 Descending Albuquerque Center
21:52 35.5847 -106.3692 59° Northeast 293 337 12,000  Level Albuquerque Center
21:53 35.6261 -106.2911 57° Northeast 277 319 12,000 -360 Level Albuquerque Center
21:54 35.6614 -106.2092 62° Northeast 273 314 11,300 -1,020 Descending Albuquerque Center
21:55 35.6922 -106.1228 66° East 274 315 10,000 -1,320 Descending Albuquerque Center
21:56 35.6958 -106.0342 87° East 271 312 8,600 -1,380 Descending Albuquerque Center
21:57 35.6536 -106.0567 203° Southwest 204 235 7,300 -1,320 Descending Albuquerque Center